sensor_id;sensor_type;location;lat;lon;timestamp;P1;P2;P0
46044;PMS7003;31781;54.094;13.428;2023-01-29T00:00:00;17.33;15.33;8.67
46044;PMS7003;31781;54.094;13.428;2023-01-29T00:02:02;24.33;22.67;16.00
46044;PMS7003;31781;54.094;13.428;2023-01-29T00:04:04;23.00;20.33;15.00
46044;PMS7003;31781;54.094;13.428;2023-01-29T00:06:06;23.67;23.00;15.67
46044;PMS7003;31781;54.094;13.428;2023-01-29T00:08:09;22.00;16.67;12.33
46044;PMS7003;31781;54.094;13.428;2023-01-29T00:10:10;18.33;17.33;10.67
46044;PMS7003;31781;54.094;13.428;2023-01-29T00:12:14;19.00;16.00;12.33
46044;PMS7003;31781;54.094;13.428;2023-01-29T00:14:16;18.00;16.00;10.33
46044;PMS7003;31781;54.094;13.428;2023-01-29T00:16:17;24.33;20.67;13.67
46044;PMS7003;31781;54.094;13.428;2023-01-29T00:18:20;20.00;18.33;12.67
46044;PMS7003;31781;54.094;13.428;2023-01-29T00:20:21;23.00;21.00;16.00
46044;PMS7003;31781;54.094;13.428;2023-01-29T00:22:23;23.00;23.00;13.67
46044;PMS7003;31781;54.094;13.428;2023-01-29T00:24:25;19.67;18.33;13.00
46044;PMS7003;31781;54.094;13.428;2023-01-29T00:26:27;28.00;19.33;10.33
46044;PMS7003;31781;54.094;13.428;2023-01-29T00:28:30;17.67;16.00;9.67
46044;PMS7003;31781;54.094;13.428;2023-01-29T00:30:32;15.00;15.00;10.33
46044;PMS7003;31781;54.094;13.428;2023-01-29T00:32:35;25.33;24.00;14.67
46044;PMS7003;31781;54.094;13.428;2023-01-29T00:34:37;20.00;19.00;14.33
46044;PMS7003;31781;54.094;13.428;2023-01-29T00:36:38;23.67;20.00;13.00
46044;PMS7003;31781;54.094;13.428;2023-01-29T00:38:40;27.33;18.00;14.33
46044;PMS7003;31781;54.094;13.428;2023-01-29T00:40:42;25.67;23.00;12.33
46044;PMS7003;31781;54.094;13.428;2023-01-29T00:42:44;20.33;17.67;14.00
46044;PMS7003;31781;54.094;13.428;2023-01-29T00:44:47;20.33;17.00;14.33
46044;PMS7003;31781;54.094;13.428;2023-01-29T00:46:49;22.67;20.67;14.33
46044;PMS7003;31781;54.094;13.428;2023-01-29T00:48:51;24.00;20.00;13.00
46044;PMS7003;31781;54.094;13.428;2023-01-29T00:50:52;19.00;14.67;11.67
46044;PMS7003;31781;54.094;13.428;2023-01-29T00:52:54;23.33;17.00;11.67
46044;PMS7003;31781;54.094;13.428;2023-01-29T00:54:56;25.00;23.33;15.00
46044;PMS7003;31781;54.094;13.428;2023-01-29T00:57:00;24.00;18.33;14.33
46044;PMS7003;31781;54.094;13.428;2023-01-29T00:59:03;15.67;13.67;8.00
46044;PMS7003;31781;54.094;13.428;2023-01-29T01:01:06;29.00;21.33;16.33
46044;PMS7003;31781;54.094;13.428;2023-01-29T01:03:08;17.67;17.00;10.33
46044;PMS7003;31781;54.094;13.428;2023-01-29T01:05:11;17.33;17.33;11.33
46044;PMS7003;31781;54.094;13.428;2023-01-29T01:07:14;23.33;22.33;13.00
46044;PMS7003;31781;54.094;13.428;2023-01-29T01:09:16;25.33;25.33;13.00
46044;PMS7003;31781;54.094;13.428;2023-01-29T01:11:18;16.33;16.33;11.67
46044;PMS7003;31781;54.094;13.428;2023-01-29T01:13:20;24.00;23.00;14.00
46044;PMS7003;31781;54.094;13.428;2023-01-29T01:15:22;22.33;19.33;13.00
46044;PMS7003;31781;54.094;13.428;2023-01-29T01:17:29;27.33;26.33;16.00
46044;PMS7003;31781;54.094;13.428;2023-01-29T01:19:32;18.67;16.67;12.00
46044;PMS7003;31781;54.094;13.428;2023-01-29T01:21:34;20.33;18.67;15.67
46044;PMS7003;31781;54.094;13.428;2023-01-29T01:23:35;28.67;27.33;16.00
46044;PMS7003;31781;54.094;13.428;2023-01-29T01:25:37;23.33;22.67;12.67
46044;PMS7003;31781;54.094;13.428;2023-01-29T01:27:41;22.67;20.00;11.67
46044;PMS7003;31781;54.094;13.428;2023-01-29T01:29:43;24.33;22.67;13.00
46044;PMS7003;31781;54.094;13.428;2023-01-29T01:31:44;32.67;26.00;17.33
46044;PMS7003;31781;54.094;13.428;2023-01-29T01:33:47;19.00;15.67;9.33
46044;PMS7003;31781;54.094;13.428;2023-01-29T01:35:49;24.67;20.67;12.00
46044;PMS7003;31781;54.094;13.428;2023-01-29T01:37:51;26.00;26.00;15.67
46044;PMS7003;31781;54.094;13.428;2023-01-29T01:39:53;25.33;24.00;15.67
46044;PMS7003;31781;54.094;13.428;2023-01-29T01:41:55;21.33;20.33;13.33
46044;PMS7003;31781;54.094;13.428;2023-01-29T01:43:58;21.33;21.33;17.33
46044;PMS7003;31781;54.094;13.428;2023-01-29T01:46:00;24.33;22.00;13.00
46044;PMS7003;31781;54.094;13.428;2023-01-29T01:48:03;21.00;20.00;13.33
46044;PMS7003;31781;54.094;13.428;2023-01-29T01:50:10;26.67;20.00;12.67
46044;PMS7003;31781;54.094;13.428;2023-01-29T01:52:16;18.67;17.00;12.00
46044;PMS7003;31781;54.094;13.428;2023-01-29T01:54:19;23.67;21.67;16.00
46044;PMS7003;31781;54.094;13.428;2023-01-29T01:56:26;16.00;16.00;8.33
46044;PMS7003;31781;54.094;13.428;2023-01-29T01:58:33;23.00;16.00;9.33
46044;PMS7003;31781;54.094;13.428;2023-01-29T02:00:40;28.00;18.33;12.00
46044;PMS7003;31781;54.094;13.428;2023-01-29T02:02:43;32.00;28.00;16.67
46044;PMS7003;31781;54.094;13.428;2023-01-29T02:04:46;26.67;20.33;14.33
46044;PMS7003;31781;54.094;13.428;2023-01-29T02:06:51;20.33;16.67;10.67
46044;PMS7003;31781;54.094;13.428;2023-01-29T02:08:56;14.33;10.67;8.67
46044;PMS7003;31781;54.094;13.428;2023-01-29T02:11:02;27.33;25.67;16.33
46044;PMS7003;31781;54.094;13.428;2023-01-29T02:13:06;31.00;24.00;17.00
46044;PMS7003;31781;54.094;13.428;2023-01-29T02:15:08;14.33;14.33;8.33
46044;PMS7003;31781;54.094;13.428;2023-01-29T02:17:12;26.33;21.67;15.00
46044;PMS7003;31781;54.094;13.428;2023-01-29T02:19:18;24.33;23.00;14.33
46044;PMS7003;31781;54.094;13.428;2023-01-29T02:21:35;18.00;16.00;11.33
46044;PMS7003;31781;54.094;13.428;2023-01-29T02:24:03;23.67;19.00;17.00
46044;PMS7003;31781;54.094;13.428;2023-01-29T02:26:47;25.67;20.00;13.67
46044;PMS7003;31781;54.094;13.428;2023-01-29T02:28:56;25.00;25.00;17.33
46044;PMS7003;31781;54.094;13.428;2023-01-29T02:31:06;24.33;24.33;16.67
46044;PMS7003;31781;54.094;13.428;2023-01-29T02:33:18;22.67;21.00;14.33
46044;PMS7003;31781;54.094;13.428;2023-01-29T02:35:33;22.67;16.67;14.33
46044;PMS7003;31781;54.094;13.428;2023-01-29T02:37:43;26.00;23.33;14.00
46044;PMS7003;31781;54.094;13.428;2023-01-29T02:39:55;27.00;23.00;16.00
46044;PMS7003;31781;54.094;13.428;2023-01-29T02:44:29;27.33;24.67;13.67
46044;PMS7003;31781;54.094;13.428;2023-01-29T02:46:38;23.67;21.00;13.33
46044;PMS7003;31781;54.094;13.428;2023-01-29T02:48:51;24.33;20.00;13.67
46044;PMS7003;31781;54.094;13.428;2023-01-29T02:50:59;24.33;22.33;13.67
46044;PMS7003;31781;54.094;13.428;2023-01-29T02:53:05;24.33;23.67;13.33
46044;PMS7003;31781;54.094;13.428;2023-01-29T02:55:15;18.00;18.00;13.00
46044;PMS7003;31781;54.094;13.428;2023-01-29T02:57:24;18.33;17.33;12.00
46044;PMS7003;31781;54.094;13.428;2023-01-29T02:59:33;26.33;21.33;14.00
46044;PMS7003;31781;54.094;13.428;2023-01-29T03:01:41;24.33;24.33;16.00
46044;PMS7003;31781;54.094;13.428;2023-01-29T03:03:48;20.67;18.33;13.33
46044;PMS7003;31781;54.094;13.428;2023-01-29T03:05:55;19.00;19.00;12.00
46044;PMS7003;31781;54.094;13.428;2023-01-29T03:08:05;20.67;20.00;13.00
46044;PMS7003;31781;54.094;13.428;2023-01-29T03:10:12;21.33;17.67;12.33
46044;PMS7003;31781;54.094;13.428;2023-01-29T03:12:18;22.33;20.67;16.00
46044;PMS7003;31781;54.094;13.428;2023-01-29T03:14:24;20.33;18.33;12.33
46044;PMS7003;31781;54.094;13.428;2023-01-29T03:16:35;20.00;20.00;13.00
46044;PMS7003;31781;54.094;13.428;2023-01-29T03:18:41;21.33;20.00;14.33
46044;PMS7003;31781;54.094;13.428;2023-01-29T03:20:48;21.33;17.67;12.67
46044;PMS7003;31781;54.094;13.428;2023-01-29T03:22:54;25.33;21.67;14.33
46044;PMS7003;31781;54.094;13.428;2023-01-29T03:25:02;26.33;25.33;14.67
46044;PMS7003;31781;54.094;13.428;2023-01-29T03:27:09;23.67;22.33;17.00
46044;PMS7003;31781;54.094;13.428;2023-01-29T03:29:15;17.00;17.00;10.00
46044;PMS7003;31781;54.094;13.428;2023-01-29T03:31:17;20.67;19.67;12.00
46044;PMS7003;31781;54.094;13.428;2023-01-29T03:33:22;21.67;18.00;12.67
46044;PMS7003;31781;54.094;13.428;2023-01-29T03:35:26;25.67;21.33;14.33
46044;PMS7003;31781;54.094;13.428;2023-01-29T03:37:35;22.67;20.67;13.00
46044;PMS7003;31781;54.094;13.428;2023-01-29T03:39:41;21.33;19.00;12.33
46044;PMS7003;31781;54.094;13.428;2023-01-29T03:41:45;18.00;16.00;11.33
46044;PMS7003;31781;54.094;13.428;2023-01-29T03:43:55;20.33;16.67;12.33
46044;PMS7003;31781;54.094;13.428;2023-01-29T03:46:12;16.67;14.33;9.00
46044;PMS7003;31781;54.094;13.428;2023-01-29T03:48:25;19.67;17.33;10.67
46044;PMS7003;31781;54.094;13.428;2023-01-29T03:50:35;15.67;15.67;10.00
46044;PMS7003;31781;54.094;13.428;2023-01-29T03:52:43;25.67;21.00;13.67
46044;PMS7003;31781;54.094;13.428;2023-01-29T03:54:55;19.00;16.33;10.00
46044;PMS7003;31781;54.094;13.428;2023-01-29T03:57:02;16.00;16.00;13.00
46044;PMS7003;31781;54.094;13.428;2023-01-29T03:59:15;20.00;20.00;12.33
46044;PMS7003;31781;54.094;13.428;2023-01-29T04:01:24;27.00;21.33;12.67
46044;PMS7003;31781;54.094;13.428;2023-01-29T04:03:34;20.00;19.33;12.33
46044;PMS7003;31781;54.094;13.428;2023-01-29T04:05:41;21.00;14.00;9.00
46044;PMS7003;31781;54.094;13.428;2023-01-29T04:07:48;26.00;23.33;15.33
46044;PMS7003;31781;54.094;13.428;2023-01-29T04:09:55;17.33;17.33;10.67
46044;PMS7003;31781;54.094;13.428;2023-01-29T04:12:03;17.33;15.33;10.00
46044;PMS7003;31781;54.094;13.428;2023-01-29T04:14:07;20.67;18.33;9.67
46044;PMS7003;31781;54.094;13.428;2023-01-29T04:16:11;14.67;13.00;10.00
46044;PMS7003;31781;54.094;13.428;2023-01-29T04:18:18;17.67;15.33;11.00
46044;PMS7003;31781;54.094;13.428;2023-01-29T04:20:21;18.00;16.00;11.33
46044;PMS7003;31781;54.094;13.428;2023-01-29T04:22:25;18.00;16.33;12.33
46044;PMS7003;31781;54.094;13.428;2023-01-29T04:24:32;20.33;18.33;13.00
46044;PMS7003;31781;54.094;13.428;2023-01-29T04:26:43;16.00;12.67;10.00
46044;PMS7003;31781;54.094;13.428;2023-01-29T04:28:58;13.00;11.33;8.67
46044;PMS7003;31781;54.094;13.428;2023-01-29T04:31:12;19.00;12.67;9.67
46044;PMS7003;31781;54.094;13.428;2023-01-29T04:33:17;17.00;15.33;10.00
46044;PMS7003;31781;54.094;13.428;2023-01-29T04:35:30;10.67;9.33;8.00
46044;PMS7003;31781;54.094;13.428;2023-01-29T04:37:39;14.00;14.00;9.67
46044;PMS7003;31781;54.094;13.428;2023-01-29T04:39:48;22.33;22.33;13.33
46044;PMS7003;31781;54.094;13.428;2023-01-29T04:41:57;13.67;13.67;9.67
46044;PMS7003;31781;54.094;13.428;2023-01-29T04:44:09;16.33;14.67;9.67
46044;PMS7003;31781;54.094;13.428;2023-01-29T04:46:17;17.67;10.00;6.00
46044;PMS7003;31781;54.094;13.428;2023-01-29T04:48:23;18.33;18.33;12.00
46044;PMS7003;31781;54.094;13.428;2023-01-29T04:50:33;13.33;13.33;9.33
46044;PMS7003;31781;54.094;13.428;2023-01-29T04:52:39;12.00;12.00;9.00
46044;PMS7003;31781;54.094;13.428;2023-01-29T04:54:51;16.00;16.00;11.33
46044;PMS7003;31781;54.094;13.428;2023-01-29T04:57:04;20.00;16.00;12.00
46044;PMS7003;31781;54.094;13.428;2023-01-29T04:59:11;14.67;13.33;9.00
46044;PMS7003;31781;54.094;13.428;2023-01-29T05:01:17;14.67;13.67;10.00
46044;PMS7003;31781;54.094;13.428;2023-01-29T05:03:20;18.00;15.33;10.00
46044;PMS7003;31781;54.094;13.428;2023-01-29T05:05:26;17.00;15.00;9.33
46044;PMS7003;31781;54.094;13.428;2023-01-29T05:07:30;22.00;17.67;13.00
46044;PMS7003;31781;54.094;13.428;2023-01-29T05:09:38;17.33;17.33;10.00
46044;PMS7003;31781;54.094;13.428;2023-01-29T05:11:39;17.67;17.00;9.67
46044;PMS7003;31781;54.094;13.428;2023-01-29T05:13:42;18.33;16.67;11.33
46044;PMS7003;31781;54.094;13.428;2023-01-29T05:15:45;21.33;14.67;10.00
46044;PMS7003;31781;54.094;13.428;2023-01-29T05:17:50;13.67;13.67;9.00
46044;PMS7003;31781;54.094;13.428;2023-01-29T05:19:53;19.33;17.33;12.67
46044;PMS7003;31781;54.094;13.428;2023-01-29T05:21:56;17.33;16.00;10.00
46044;PMS7003;31781;54.094;13.428;2023-01-29T05:24:07;36.33;28.00;17.67
46044;PMS7003;31781;54.094;13.428;2023-01-29T05:26:09;18.00;16.00;10.00
46044;PMS7003;31781;54.094;13.428;2023-01-29T05:28:11;17.33;15.00;9.00
46044;PMS7003;31781;54.094;13.428;2023-01-29T05:30:13;21.00;17.00;13.00
46044;PMS7003;31781;54.094;13.428;2023-01-29T05:32:15;22.67;14.33;10.00
46044;PMS7003;31781;54.094;13.428;2023-01-29T05:34:17;27.33;15.33;9.67
46044;PMS7003;31781;54.094;13.428;2023-01-29T05:36:18;17.67;16.00;10.33
46044;PMS7003;31781;54.094;13.428;2023-01-29T05:38:20;18.33;17.33;12.67
46044;PMS7003;31781;54.094;13.428;2023-01-29T05:40:23;21.00;21.00;13.00
46044;PMS7003;31781;54.094;13.428;2023-01-29T05:42:25;17.00;16.33;8.67
46044;PMS7003;31781;54.094;13.428;2023-01-29T05:44:27;15.67;11.00;8.67
46044;PMS7003;31781;54.094;13.428;2023-01-29T05:46:29;21.00;18.00;13.00
46044;PMS7003;31781;54.094;13.428;2023-01-29T05:48:30;21.67;20.67;11.67
46044;PMS7003;31781;54.094;13.428;2023-01-29T05:50:32;15.00;13.67;9.67
46044;PMS7003;31781;54.094;13.428;2023-01-29T05:52:34;27.00;21.67;14.67
46044;PMS7003;31781;54.094;13.428;2023-01-29T05:54:35;17.33;14.33;10.33
46044;PMS7003;31781;54.094;13.428;2023-01-29T05:56:39;21.33;21.00;13.00
46044;PMS7003;31781;54.094;13.428;2023-01-29T05:58:41;28.00;21.33;13.00
46044;PMS7003;31781;54.094;13.428;2023-01-29T06:00:42;16.67;16.67;10.33
46044;PMS7003;31781;54.094;13.428;2023-01-29T06:02:44;18.33;18.00;11.67
46044;PMS7003;31781;54.094;13.428;2023-01-29T06:04:46;17.00;17.00;11.67
46044;PMS7003;31781;54.094;13.428;2023-01-29T06:06:47;18.67;17.00;11.33
46044;PMS7003;31781;54.094;13.428;2023-01-29T06:08:49;19.33;19.33;10.67
46044;PMS7003;31781;54.094;13.428;2023-01-29T06:10:51;21.33;20.00;13.00
46044;PMS7003;31781;54.094;13.428;2023-01-29T06:12:55;26.67;22.67;14.33
46044;PMS7003;31781;54.094;13.428;2023-01-29T06:14:56;25.67;22.33;16.33
46044;PMS7003;31781;54.094;13.428;2023-01-29T06:16:58;21.00;18.33;12.33
46044;PMS7003;31781;54.094;13.428;2023-01-29T06:19:00;20.00;15.33;10.67
46044;PMS7003;31781;54.094;13.428;2023-01-29T06:21:02;17.67;16.00;10.00
46044;PMS7003;31781;54.094;13.428;2023-01-29T06:23:05;23.33;21.33;14.00
46044;PMS7003;31781;54.094;13.428;2023-01-29T06:25:07;18.67;18.00;11.33
46044;PMS7003;31781;54.094;13.428;2023-01-29T06:27:09;19.00;13.33;11.33
46044;PMS7003;31781;54.094;13.428;2023-01-29T06:29:12;19.33;13.67;9.33
46044;PMS7003;31781;54.094;13.428;2023-01-29T06:31:14;14.33;14.00;10.00
46044;PMS7003;31781;54.094;13.428;2023-01-29T06:33:36;16.00;13.67;11.33
46044;PMS7003;31781;54.094;13.428;2023-01-29T06:35:38;22.67;17.67;12.67
46044;PMS7003;31781;54.094;13.428;2023-01-29T06:37:39;18.67;17.00;11.67
46044;PMS7003;31781;54.094;13.428;2023-01-29T06:39:42;17.67;12.67;7.33
46044;PMS7003;31781;54.094;13.428;2023-01-29T06:41:43;21.33;18.67;12.67
46044;PMS7003;31781;54.094;13.428;2023-01-29T06:43:46;14.67;13.00;9.67
46044;PMS7003;31781;54.094;13.428;2023-01-29T06:45:50;13.00;13.00;10.00
46044;PMS7003;31781;54.094;13.428;2023-01-29T06:47:53;13.67;10.00;6.00
46044;PMS7003;31781;54.094;13.428;2023-01-29T06:49:54;21.00;19.00;12.33
46044;PMS7003;31781;54.094;13.428;2023-01-29T06:51:56;17.67;12.67;10.00
46044;PMS7003;31781;54.094;13.428;2023-01-29T06:53:58;14.00;14.00;9.00
46044;PMS7003;31781;54.094;13.428;2023-01-29T06:56:00;16.67;16.00;9.67
46044;PMS7003;31781;54.094;13.428;2023-01-29T06:58:03;14.00;14.00;9.00
46044;PMS7003;31781;54.094;13.428;2023-01-29T07:00:07;23.33;17.67;11.33
46044;PMS7003;31781;54.094;13.428;2023-01-29T07:02:10;18.00;15.33;10.00
46044;PMS7003;31781;54.094;13.428;2023-01-29T07:04:13;13.00;13.00;10.00
46044;PMS7003;31781;54.094;13.428;2023-01-29T07:06:14;15.33;10.33;8.00
46044;PMS7003;31781;54.094;13.428;2023-01-29T07:08:18;6.00;4.33;1.00
46044;PMS7003;31781;54.094;13.428;2023-01-29T07:10:20;20.33;18.00;11.67
46044;PMS7003;31781;54.094;13.428;2023-01-29T07:12:22;19.33;19.00;12.67
46044;PMS7003;31781;54.094;13.428;2023-01-29T07:14:24;19.67;18.00;10.00
46044;PMS7003;31781;54.094;13.428;2023-01-29T07:16:25;15.00;14.00;10.33
46044;PMS7003;31781;54.094;13.428;2023-01-29T07:18:31;19.33;16.00;12.33
46044;PMS7003;31781;54.094;13.428;2023-01-29T07:20:32;16.67;13.33;9.33
46044;PMS7003;31781;54.094;13.428;2023-01-29T07:22:34;15.33;13.67;7.33
46044;PMS7003;31781;54.094;13.428;2023-01-29T07:24:35;15.33;14.67;9.00
46044;PMS7003;31781;54.094;13.428;2023-01-29T07:26:37;17.67;16.33;10.00
46044;PMS7003;31781;54.094;13.428;2023-01-29T07:28:39;14.00;14.00;11.33
46044;PMS7003;31781;54.094;13.428;2023-01-29T07:30:41;14.33;13.00;9.33
46044;PMS7003;31781;54.094;13.428;2023-01-29T07:32:42;15.67;11.33;6.67
46044;PMS7003;31781;54.094;13.428;2023-01-29T07:34:45;16.33;15.00;8.33
46044;PMS7003;31781;54.094;13.428;2023-01-29T07:36:47;17.67;14.33;10.00
46044;PMS7003;31781;54.094;13.428;2023-01-29T07:38:49;23.67;18.00;13.00
46044;PMS7003;31781;54.094;13.428;2023-01-29T07:40:51;14.67;13.00;9.33
46044;PMS7003;31781;54.094;13.428;2023-01-29T07:42:56;19.00;14.33;10.33
46044;PMS7003;31781;54.094;13.428;2023-01-29T07:44:58;18.00;16.33;9.00
46044;PMS7003;31781;54.094;13.428;2023-01-29T07:47:00;19.00;15.00;9.33
46044;PMS7003;31781;54.094;13.428;2023-01-29T07:49:01;13.33;11.00;9.00
46044;PMS7003;31781;54.094;13.428;2023-01-29T07:51:04;16.33;14.00;10.33
46044;PMS7003;31781;54.094;13.428;2023-01-29T07:53:06;14.67;14.00;9.00
46044;PMS7003;31781;54.094;13.428;2023-01-29T07:55:13;14.00;11.00;9.67
46044;PMS7003;31781;54.094;13.428;2023-01-29T07:57:15;15.67;15.67;11.00
46044;PMS7003;31781;54.094;13.428;2023-01-29T07:59:17;13.00;10.33;6.67
46044;PMS7003;31781;54.094;13.428;2023-01-29T08:01:18;15.67;13.00;9.00
46044;PMS7003;31781;54.094;13.428;2023-01-29T08:03:20;14.33;12.33;8.33
46044;PMS7003;31781;54.094;13.428;2023-01-29T08:05:22;10.33;10.00;7.00
46044;PMS7003;31781;54.094;13.428;2023-01-29T08:07:25;14.00;14.00;10.67
46044;PMS7003;31781;54.094;13.428;2023-01-29T08:09:27;13.67;11.67;7.67
46044;PMS7003;31781;54.094;13.428;2023-01-29T08:11:28;16.33;16.33;10.00
46044;PMS7003;31781;54.094;13.428;2023-01-29T08:13:30;13.00;13.00;10.00
46044;PMS7003;31781;54.094;13.428;2023-01-29T08:15:33;11.33;11.33;7.67
46044;PMS7003;31781;54.094;13.428;2023-01-29T08:17:39;17.33;14.67;9.00
46044;PMS7003;31781;54.094;13.428;2023-01-29T08:19:57;13.00;12.33;6.67
46044;PMS7003;31781;54.094;13.428;2023-01-29T08:21:59;13.33;11.67;9.33
46044;PMS7003;31781;54.094;13.428;2023-01-29T08:24:04;11.33;11.33;6.00
46044;PMS7003;31781;54.094;13.428;2023-01-29T08:26:06;10.33;10.33;7.67
46044;PMS7003;31781;54.094;13.428;2023-01-29T08:28:08;14.67;13.00;10.00
46044;PMS7003;31781;54.094;13.428;2023-01-29T08:30:11;14.00;14.00;9.00
46044;PMS7003;31781;54.094;13.428;2023-01-29T08:32:13;15.00;11.00;9.00
46044;PMS7003;31781;54.094;13.428;2023-01-29T08:34:15;14.67;13.00;9.00
46044;PMS7003;31781;54.094;13.428;2023-01-29T08:36:16;13.67;13.67;9.67
46044;PMS7003;31781;54.094;13.428;2023-01-29T08:38:18;15.00;10.00;6.67
46044;PMS7003;31781;54.094;13.428;2023-01-29T08:40:21;14.33;14.33;10.33
46044;PMS7003;31781;54.094;13.428;2023-01-29T08:42:23;15.00;11.00;10.00
46044;PMS7003;31781;54.094;13.428;2023-01-29T08:44:24;13.33;13.00;10.00
46044;PMS7003;31781;54.094;13.428;2023-01-29T08:46:26;15.00;15.00;11.00
46044;PMS7003;31781;54.094;13.428;2023-01-29T08:48:28;11.67;9.67;6.00
46044;PMS7003;31781;54.094;13.428;2023-01-29T08:50:30;12.67;12.67;7.67
46044;PMS7003;31781;54.094;13.428;2023-01-29T08:52:32;16.67;14.67;10.00
46044;PMS7003;31781;54.094;13.428;2023-01-29T08:54:34;11.33;11.33;7.67
46044;PMS7003;31781;54.094;13.428;2023-01-29T08:56:37;14.33;9.33;7.00
46044;PMS7003;31781;54.094;13.428;2023-01-29T08:58:38;14.00;14.00;10.33
46044;PMS7003;31781;54.094;13.428;2023-01-29T09:00:40;19.33;12.00;9.00
46044;PMS7003;31781;54.094;13.428;2023-01-29T09:02:41;22.67;15.67;9.33
46044;PMS7003;31781;54.094;13.428;2023-01-29T09:04:43;10.00;7.67;6.00
46044;PMS7003;31781;54.094;13.428;2023-01-29T09:06:44;14.67;12.33;10.00
46044;PMS7003;31781;54.094;13.428;2023-01-29T09:08:46;19.00;13.67;10.00
46044;PMS7003;31781;54.094;13.428;2023-01-29T09:10:48;11.33;11.33;9.33
46044;PMS7003;31781;54.094;13.428;2023-01-29T09:12:51;15.00;12.33;9.00
46044;PMS7003;31781;54.094;13.428;2023-01-29T09:14:53;15.00;15.00;10.67
46044;PMS7003;31781;54.094;13.428;2023-01-29T09:16:55;10.67;10.67;9.00
46044;PMS7003;31781;54.094;13.428;2023-01-29T09:18:57;15.00;15.00;11.00
46044;PMS7003;31781;54.094;13.428;2023-01-29T09:20:58;14.00;10.67;7.00
46044;PMS7003;31781;54.094;13.428;2023-01-29T09:23:02;13.00;11.00;8.33
46044;PMS7003;31781;54.094;13.428;2023-01-29T09:25:05;13.67;13.67;10.00
46044;PMS7003;31781;54.094;13.428;2023-01-29T09:27:08;15.33;14.00;9.67
46044;PMS7003;31781;54.094;13.428;2023-01-29T09:29:11;14.00;11.67;9.00
46044;PMS7003;31781;54.094;13.428;2023-01-29T09:31:13;14.00;11.33;9.00
46044;PMS7003;31781;54.094;13.428;2023-01-29T09:33:15;17.00;17.00;10.33
46044;PMS7003;31781;54.094;13.428;2023-01-29T09:35:17;10.67;10.67;9.00
46044;PMS7003;31781;54.094;13.428;2023-01-29T09:37:18;11.67;11.67;9.33
46044;PMS7003;31781;54.094;13.428;2023-01-29T09:39:22;17.00;15.00;10.67
46044;PMS7003;31781;54.094;13.428;2023-01-29T09:41:28;13.67;13.67;9.67
46044;PMS7003;31781;54.094;13.428;2023-01-29T09:43:42;2.00;2.00;1.00
46044;PMS7003;31781;54.094;13.428;2023-01-29T09:45:51;9.33;9.33;7.00
46044;PMS7003;31781;54.094;13.428;2023-01-29T09:47:56;5.67;3.00;1.33
46044;PMS7003;31781;54.094;13.428;2023-01-29T09:50:01;11.67;11.00;8.33
46044;PMS7003;31781;54.094;13.428;2023-01-29T09:52:06;11.00;11.00;7.00
46044;PMS7003;31781;54.094;13.428;2023-01-29T09:54:16;17.67;14.33;10.00
46044;PMS7003;31781;54.094;13.428;2023-01-29T09:56:23;13.33;13.33;9.00
46044;PMS7003;31781;54.094;13.428;2023-01-29T09:58:26;9.67;9.67;5.33
46044;PMS7003;31781;54.094;13.428;2023-01-29T10:00:33;16.33;10.67;9.00
46044;PMS7003;31781;54.094;13.428;2023-01-29T10:02:44;16.33;15.67;10.00
46044;PMS7003;31781;54.094;13.428;2023-01-29T10:05:05;14.00;11.00;10.00
46044;PMS7003;31781;54.094;13.428;2023-01-29T10:07:41;15.00;15.00;11.00
46044;PMS7003;31781;54.094;13.428;2023-01-29T10:10:02;10.00;10.00;6.33
46044;PMS7003;31781;54.094;13.428;2023-01-29T10:12:15;11.00;11.00;7.00
46044;PMS7003;31781;54.094;13.428;2023-01-29T10:14:33;12.33;10.00;8.33
46044;PMS7003;31781;54.094;13.428;2023-01-29T10:16:48;7.67;6.33;5.00
46044;PMS7003;31781;54.094;13.428;2023-01-29T10:19:08;10.67;10.67;7.67
46044;PMS7003;31781;54.094;13.428;2023-01-29T10:21:36;8.67;8.67;6.33
46044;PMS7003;31781;54.094;13.428;2023-01-29T10:24:04;7.00;7.00;5.00
46044;PMS7003;31781;54.094;13.428;2023-01-29T10:26:19;8.33;6.00;5.67
46044;PMS7003;31781;54.094;13.428;2023-01-29T10:28:28;13.33;11.33;9.33
46044;PMS7003;31781;54.094;13.428;2023-01-29T10:30:35;10.00;6.00;5.00
46044;PMS7003;31781;54.094;13.428;2023-01-29T10:32:40;7.67;7.67;6.00
46044;PMS7003;31781;54.094;13.428;2023-01-29T10:34:44;6.33;5.00;3.00
46044;PMS7003;31781;54.094;13.428;2023-01-29T10:36:50;5.00;5.00;5.00
46044;PMS7003;31781;54.094;13.428;2023-01-29T10:38:51;4.33;4.33;3.00
46044;PMS7003;31781;54.094;13.428;2023-01-29T10:40:54;4.33;4.33;2.00
46044;PMS7003;31781;54.094;13.428;2023-01-29T10:43:07;5.67;5.67;5.00
46044;PMS7003;31781;54.094;13.428;2023-01-29T10:45:19;7.33;6.00;5.00
46044;PMS7003;31781;54.094;13.428;2023-01-29T10:47:32;5.67;3.00;1.67
46044;PMS7003;31781;54.094;13.428;2023-01-29T10:49:51;1.00;1.00;0.00
46044;PMS7003;31781;54.094;13.428;2023-01-29T10:52:07;7.00;7.00;5.33
46044;PMS7003;31781;54.094;13.428;2023-01-29T10:54:21;7.00;7.00;5.00
46044;PMS7003;31781;54.094;13.428;2023-01-29T10:56:38;7.00;7.00;5.00
46044;PMS7003;31781;54.094;13.428;2023-01-29T10:58:49;6.67;6.00;5.00
46044;PMS7003;31781;54.094;13.428;2023-01-29T11:00:54;6.00;6.00;5.33
46044;PMS7003;31781;54.094;13.428;2023-01-29T11:02:58;2.67;2.67;2.00
46044;PMS7003;31781;54.094;13.428;2023-01-29T11:05:30;7.67;7.67;6.00
46044;PMS7003;31781;54.094;13.428;2023-01-29T11:07:37;6.67;6.67;6.00
46044;PMS7003;31781;54.094;13.428;2023-01-29T11:09:41;3.00;3.00;3.00
46044;PMS7003;31781;54.094;13.428;2023-01-29T11:11:49;10.00;6.00;5.00
46044;PMS7003;31781;54.094;13.428;2023-01-29T11:13:56;6.33;6.33;5.67
46044;PMS7003;31781;54.094;13.428;2023-01-29T11:16:03;2.67;2.67;2.00
46044;PMS7003;31781;54.094;13.428;2023-01-29T11:18:06;10.33;8.33;6.00
46044;PMS7003;31781;54.094;13.428;2023-01-29T11:20:13;6.67;5.00;4.33
46044;PMS7003;31781;54.094;13.428;2023-01-29T11:22:29;7.33;4.33;3.00
46044;PMS7003;31781;54.094;13.428;2023-01-29T11:24:30;2.33;2.33;2.00
46044;PMS7003;31781;54.094;13.428;2023-01-29T11:26:32;3.00;3.00;3.00
46044;PMS7003;31781;54.094;13.428;2023-01-29T11:28:39;3.00;3.00;2.00
46044;PMS7003;31781;54.094;13.428;2023-01-29T11:30:42;5.00;5.00;3.00
46044;PMS7003;31781;54.094;13.428;2023-01-29T11:32:43;3.00;3.00;2.00
46044;PMS7003;31781;54.094;13.428;2023-01-29T11:35:01;2.33;2.33;2.00
46044;PMS7003;31781;54.094;13.428;2023-01-29T11:37:14;2.00;2.00;2.00
46044;PMS7003;31781;54.094;13.428;2023-01-29T11:39:18;6.00;4.33;3.00
46044;PMS7003;31781;54.094;13.428;2023-01-29T11:41:21;2.00;2.00;2.00